Time;durP1;ratioP1;P1;durP2;ratioP2;P2;SDS_P1;SDS_P2;PMS_P1;PMS_P2;Temp;Humidity;BMP_temperature;BMP_pressure;BME280_temperature;BME280_humidity;BME280_pressure;Samples;Min_cycle;Max_cycle;Signal;HPM_P1;HPM_P2
2022/08/12 00:45:13;;;;;;;;;;;;;;;27.26;34.66;100620.09;4978339;28;950;-42
2022/08/12 00:47:38;;;;;;;;;;;;;;;26.99;34.84;100622.41;4980781;28;997;-42
2022/08/12 00:50:04;;;;;;;;;;;;;;;27.28;34.88;100630.72;4964102;28;2540;-41
2022/08/12 00:52:30;;;;;;;;;;;;;;;27.17;35.04;100632.03;4980400;28;1886;-44
2022/08/12 00:54:56;;;;;;;;;;;;;;;27.09;34.70;100626.72;4980650;28;1174;-43
2022/08/12 00:57:26;;;;;;;;;;;;;;;27.12;35.27;100629.06;4980381;28;1110;-43
2022/08/12 00:59:52;;;;;;;;;;;;;;;26.95;35.03;100629.22;4980343;28;1224;-43
2022/08/12 01:02:36;;;;;;;;;;;;;;;27.20;35.06;100639.75;4981109;28;1059;-44
2022/08/12 01:13:17;;;;;;;;;;;;;;;27.38;35.27;100625.03;4979982;28;1910;-43
2022/08/12 01:15:45;;;;;;;;;;;;;;;27.38;35.02;100625.88;4980459;28;971;-42
2022/08/12 01:18:14;;;;;;;;;;;;;;;27.18;35.01;100627.47;4980033;28;924;-43
2022/08/12 01:20:47;;;;;;;;;;;;;;;27.33;34.77;100632.84;4979812;28;2679;-42
2022/08/12 01:23:31;;;;;;;;;;;;;;;27.21;34.99;100630.63;4980217;28;1015;-42
2022/08/12 01:25:56;;;;;;;;;;;;;;;27.15;35.19;100628.69;4979855;28;1050;-43
2022/08/12 01:28:22;;;;;;;;;;;;;;;27.26;34.78;100635.47;4977776;28;1122;-44
2022/08/12 01:30:47;;;;;;;;;;;;;;;27.16;34.74;100621.44;4978711;28;996;-42
2022/08/12 01:33:14;;;;;;;;;;;;;;;27.12;35.45;100629.06;4979790;28;1966;-42
2022/08/12 01:35:39;;;;;;;;;;;;;;;27.07;35.41;100621.53;4979990;28;1070;-43
2022/08/12 01:38:05;;;;;;;;;;;;;;;27.10;35.03;100620.28;4974345;28;979;-43
2022/08/12 01:40:31;;;;;;;;;;;;;;;27.08;35.17;100622.34;4971404;28;1047;-42
2022/08/12 01:42:57;;;;;;;;;;;;;;;26.86;35.31;100614.13;4978740;28;971;-43
2022/08/12 01:45:23;;;;;;;;;;;;;;;26.92;35.40;100624.19;4979782;28;973;-42
2022/08/12 01:48:03;;;;;;;;;;;;;;;27.22;35.22;100632.31;4974134;28;1011;-43
2022/08/12 01:50:35;;;;;;;;;;;;;;;26.99;35.04;100613.47;4971337;28;2367;-42
2022/08/12 01:53:05;;;;;;;;;;;;;;;27.28;34.75;100621.81;4974287;28;1961;-43
2022/08/12 01:55:36;;;;;;;;;;;;;;;27.21;35.03;100610.91;4979589;28;972;-42
2022/08/12 01:58:10;;;;;;;;;;;;;;;27.24;34.72;100619.44;4975721;28;1134;-43
2022/08/12 02:00:50;;;;;;;;;;;;;;;27.09;35.13;100616.75;4979333;28;1015;-43
2022/08/12 02:03:28;;;;;;;;;;;;;;;26.94;35.41;100622.16;4979422;28;1161;-42
2022/08/12 02:11:52;;;;;;;;;;;;;;;27.08;35.56;100614.25;4978817;28;1958;-44
2022/08/12 02:14:17;;;;;;;;;;;;;;;26.88;35.56;100617.47;4973186;28;1031;-42
2022/08/12 02:16:49;;;;;;;;;;;;;;;27.12;35.24;100619.09;4976446;28;1197;-44
2022/08/12 02:19:16;;;;;;;;;;;;;;;26.94;35.74;100611.34;4973049;28;1850;-43
2022/08/12 02:21:46;;;;;;;;;;;;;;;26.95;35.62;100613.00;4976553;28;1177;-43
2022/08/12 02:24:12;;;;;;;;;;;;;;;26.94;36.19;100611.34;4976839;28;1164;-43
2022/08/12 02:26:38;;;;;;;;;;;;;;;26.91;35.44;100619.78;4979242;28;1140;-44
2022/08/12 02:29:03;;;;;;;;;;;;;;;27.10;35.51;100607.66;4978784;28;980;-43
2022/08/12 02:31:29;;;;;;;;;;;;;;;26.99;35.40;100610.78;4978959;28;1898;-44
2022/08/12 02:33:54;;;;;;;;;;;;;;;27.09;35.60;100615.94;4978992;28;1054;-44
2022/08/12 02:36:19;;;;;;;;;;;;;;;27.11;35.54;100611.19;4973532;28;990;-44
2022/08/12 02:38:44;;;;;;;;;;;;;;;27.20;35.16;100612.75;4978404;28;1015;-44
2022/08/12 02:41:10;;;;;;;;;;;;;;;27.18;35.27;100609.41;4978635;28;991;-44
2022/08/12 02:43:39;;;;;;;;;;;;;;;27.23;35.44;100617.78;4978696;28;1011;-42
2022/08/12 02:46:04;;;;;;;;;;;;;;;27.31;35.36;100619.53;4978438;28;956;-43
2022/08/12 02:48:33;;;;;;;;;;;;;;;27.06;35.46;100613.63;4978671;28;1141;-43
2022/08/12 02:51:05;;;;;;;;;;;;;;;27.37;35.07;100604.47;4978639;28;2346;-44
2022/08/12 02:53:33;;;;;;;;;;;;;;;27.16;35.46;100614.16;4978350;28;1059;-44
2022/08/12 02:55:58;;;;;;;;;;;;;;;27.10;35.39;100606.81;4978321;28;980;-43
2022/08/12 02:58:24;;;;;;;;;;;;;;;27.16;35.52;100607.94;4977631;28;1019;-43
2022/08/12 03:00:49;;;;;;;;;;;;;;;27.02;35.67;100605.88;4976822;28;1062;-44
2022/08/12 03:03:15;;;;;;;;;;;;;;;27.24;35.58;100602.44;4966619;28;1122;-43
2022/08/12 03:05:43;;;;;;;;;;;;;;;27.08;35.99;100603.44;4973255;28;975;-43
2022/08/12 03:08:09;;;;;;;;;;;;;;;27.08;35.48;100606.13;4977652;28;975;-43
2022/08/12 03:10:35;;;;;;;;;;;;;;;27.11;35.59;100608.50;4973117;28;1255;-43
2022/08/12 03:13:00;;;;;;;;;;;;;;;27.13;35.23;100609.97;4978131;28;1980;-44
2022/08/12 03:15:26;;;;;;;;;;;;;;;27.18;35.31;100616.66;4973665;28;1070;-44
2022/08/12 03:17:51;;;;;;;;;;;;;;;27.18;35.72;100612.09;4977681;28;995;-44
2022/08/12 03:20:17;;;;;;;;;;;;;;;27.05;36.07;100612.75;4977410;28;2212;-44
2022/08/12 03:22:43;;;;;;;;;;;;;;;27.19;34.97;100619.19;4978192;28;1031;-42
2022/08/12 03:25:11;;;;;;;;;;;;;;;26.92;34.90;100613.38;4977949;28;1023;-43
2022/08/12 03:27:39;;;;;;;;;;;;;;;27.13;34.90;100611.81;4977730;28;951;-43
2022/08/12 03:30:04;;;;;;;;;;;;;;;27.22;34.96;100608.03;4977903;28;1063;-43
2022/08/12 03:32:30;;;;;;;;;;;;;;;26.72;36.64;100613.91;4977501;28;1973;-43
2022/08/12 03:34:56;;;;;;;;;;;;;;;26.56;37.03;100617.59;4974191;28;1051;-42
2022/08/12 03:37:21;;;;;;;;;;;;;;;26.46;36.64;100625.13;4974734;28;1126;-44
2022/08/12 03:39:46;;;;;;;;;;;;;;;26.38;36.39;100617.91;4975404;28;1055;-43
2022/08/12 03:42:17;;;;;;;;;;;;;;;26.31;37.28;100625.03;4972634;28;976;-42
2022/08/12 04:01:10;;;;;;;;;;;;;;;25.50;40.38;100614.38;4962475;28;932;-41
2022/08/12 04:03:51;;;;;;;;;;;;;;;26.24;39.00;100616.84;4971100;28;1023;-42
2022/08/12 04:06:27;;;;;;;;;;;;;;;26.17;39.11;100622.09;4976955;28;1034;-43
2022/08/12 04:08:56;;;;;;;;;;;;;;;26.15;39.50;100624.97;4976546;28;1077;-43
2022/08/12 04:14:13;;;;;;;;;;;;;;;26.09;39.13;100630.25;4971343;28;987;-41
2022/08/12 04:16:38;;;;;;;;;;;;;;;25.72;40.41;100629.97;4977124;28;1212;-41
2022/08/12 04:19:03;;;;;;;;;;;;;;;25.68;39.91;100624.06;4976249;28;1784;-43
2022/08/12 04:21:31;;;;;;;;;;;;;;;25.86;40.20;100637.28;4976440;28;1079;-42
2022/08/12 04:23:57;;;;;;;;;;;;;;;25.93;40.13;100637.41;4976918;28;999;-42
2022/08/12 04:26:22;;;;;;;;;;;;;;;25.25;41.83;100643.25;4976968;28;940;-42
2022/08/12 04:28:47;;;;;;;;;;;;;;;25.21;41.81;100642.75;4977214;28;1130;-42
2022/08/12 04:31:13;;;;;;;;;;;;;;;25.48;41.69;100639.78;4976605;28;1902;-42
2022/08/12 04:33:41;;;;;;;;;;;;;;;26.14;39.19;100641.34;4977039;28;1074;-43
2022/08/12 04:36:06;;;;;;;;;;;;;;;26.06;40.14;100633.31;4976468;28;940;-42
2022/08/12 04:38:32;;;;;;;;;;;;;;;26.00;39.52;100635.69;4976918;28;999;-42
2022/08/12 04:40:57;;;;;;;;;;;;;;;26.07;40.10;100638.53;4977087;28;1035;-42
2022/08/12 04:43:24;;;;;;;;;;;;;;;26.15;40.01;100640.31;4975233;28;912;-42
2022/08/12 04:45:51;;;;;;;;;;;;;;;25.95;40.10;100639.94;4976591;28;932;-42
2022/08/12 04:48:17;;;;;;;;;;;;;;;26.30;39.86;100643.06;4977505;28;1051;-42
2022/08/12 04:50:42;;;;;;;;;;;;;;;26.73;37.24;100634.47;4976585;28;1955;-43
2022/08/12 04:53:08;;;;;;;;;;;;;;;27.03;36.31;100644.50;4975849;28;1931;-43
2022/08/12 04:55:33;;;;;;;;;;;;;;;27.11;36.71;100635.50;4975663;28;1276;-43
2022/08/12 04:57:59;;;;;;;;;;;;;;;27.37;36.15;100642.28;4958463;28;1205;-43
2022/08/12 05:00:24;;;;;;;;;;;;;;;27.48;35.72;100646.34;4975817;28;1222;-43
2022/08/12 05:02:49;;;;;;;;;;;;;;;27.53;35.98;100635.00;4976134;28;1249;-43
2022/08/12 05:05:19;;;;;;;;;;;;;;;27.54;35.67;100648.31;4975129;28;1527;-41
2022/08/12 05:07:46;;;;;;;;;;;;;;;27.59;35.86;100643.16;4976182;28;1138;-42
2022/08/12 05:10:12;;;;;;;;;;;;;;;27.72;35.43;100644.41;4958366;28;1319;-42
2022/08/12 05:12:38;;;;;;;;;;;;;;;27.81;35.59;100651.34;4975983;28;1969;-42
2022/08/12 05:15:04;;;;;;;;;;;;;;;27.75;35.38;100646.72;4958670;28;1205;-41
2022/08/12 05:17:29;;;;;;;;;;;;;;;27.81;35.33;100651.34;4976296;28;1222;-43
2022/08/12 05:19:55;;;;;;;;;;;;;;;27.89;35.21;100647.72;4973653;28;1847;-42
2022/08/12 05:22:20;;;;;;;;;;;;;;;27.88;34.74;100648.72;4975885;28;1213;-42
2022/08/12 05:24:46;;;;;;;;;;;;;;;27.95;34.73;100644.25;4976612;28;1265;-43
2022/08/12 05:27:11;;;;;;;;;;;;;;;27.95;34.92;100641.53;4975597;28;971;-43
2022/08/12 05:29:38;;;;;;;;;;;;;;;27.96;34.85;100639.69;4976026;28;1190;-42
2022/08/12 05:32:04;;;;;;;;;;;;;;;27.99;34.51;100639.28;4978759;28;1914;-40
2022/08/12 05:34:31;;;;;;;;;;;;;;;28.04;34.77;100644.97;4980248;28;1164;-42
2022/08/12 05:36:56;;;;;;;;;;;;;;;28.08;35.22;100648.09;4980002;28;984;-43
2022/08/12 05:39:21;;;;;;;;;;;;;;;28.09;35.05;100644.38;4979976;28;1166;-44
2022/08/12 05:41:47;;;;;;;;;;;;;;;28.08;34.90;100640.84;4979575;28;1482;-42
2022/08/12 05:44:14;;;;;;;;;;;;;;;28.11;35.45;100648.56;4979525;28;861;-42
2022/08/12 05:46:40;;;;;;;;;;;;;;;28.22;35.82;100639.13;4978547;28;1066;-43
2022/08/12 05:49:05;;;;;;;;;;;;;;;28.02;35.27;100638.06;4979477;28;1976;-43
2022/08/12 05:51:31;;;;;;;;;;;;;;;27.61;34.29;100627.59;4979607;28;1961;-43
2022/08/12 05:53:57;;;;;;;;;;;;;;;28.00;34.56;100627.44;4979869;28;984;-43
2022/08/12 05:56:23;;;;;;;;;;;;;;;28.44;34.35;100633.72;4975123;28;1439;-43
2022/08/12 05:58:50;;;;;;;;;;;;;;;28.52;35.13;100631.91;4979399;28;1010;-42
2022/08/12 06:01:15;;;;;;;;;;;;;;;28.73;35.54;100628.31;4979685;28;988;-43
2022/08/12 06:03:41;;;;;;;;;;;;;;;28.80;35.54;100637.31;4979211;28;1023;-43
2022/08/12 06:06:06;;;;;;;;;;;;;;;28.72;35.57;100626.63;4979200;28;987;-43
2022/08/12 06:08:34;;;;;;;;;;;;;;;28.74;35.65;100630.00;4979351;28;1033;-43
2022/08/12 06:11:00;;;;;;;;;;;;;;;28.76;35.67;100629.81;4978945;28;1098;-43
2022/08/12 06:13:25;;;;;;;;;;;;;;;28.90;36.10;100626.13;4979170;28;1963;-43
2022/08/12 06:15:51;;;;;;;;;;;;;;;28.96;35.88;100613.69;4979431;28;964;-42
2022/08/12 06:18:17;;;;;;;;;;;;;;;28.53;35.87;100620.06;4979090;28;1024;-44
2022/08/12 06:20:43;;;;;;;;;;;;;;;28.08;34.83;100624.59;4977207;28;2018;-44
2022/08/12 06:23:10;;;;;;;;;;;;;;;28.03;34.71;100631.66;4977592;28;1170;-43
2022/08/12 06:25:35;;;;;;;;;;;;;;;27.98;34.31;100630.34;4978298;28;1189;-43
2022/08/12 06:28:02;;;;;;;;;;;;;;;28.07;34.49;100627.50;4978279;28;1244;-43
2022/08/12 06:30:28;;;;;;;;;;;;;;;28.01;33.81;100628.28;4978850;28;971;-43
2022/08/12 06:32:54;;;;;;;;;;;;;;;28.13;33.39;100626.72;4979091;28;1965;-43
2022/08/12 06:35:20;;;;;;;;;;;;;;;28.52;33.51;100631.91;4978744;28;1138;-42
2022/08/12 06:37:47;;;;;;;;;;;;;;;29.07;34.23;100618.56;4978999;28;984;-38
2022/08/12 06:40:12;;;;;;;;;;;;;;;28.90;34.15;100625.28;4978969;28;1159;-42
2022/08/12 06:42:46;;;;;;;;;;;;;;;29.00;34.02;100624.97;4977554;28;1110;-42
2022/08/12 06:45:12;;;;;;;;;;;;;;;28.78;34.68;100616.91;4979219;28;999;-41
2022/08/12 06:47:37;;;;;;;;;;;;;;;28.96;34.69;100627.22;4974753;28;948;-42
2022/08/12 06:50:03;;;;;;;;;;;;;;;29.50;34.94;100622.09;4978393;28;1983;-43
2022/08/12 06:52:30;;;;;;;;;;;;;;;29.66;34.41;100628.25;4977805;28;1890;-41
2022/08/12 06:54:57;;;;;;;;;;;;;;;29.61;34.45;100628.00;4978305;28;1079;-43
2022/08/12 06:57:26;;;;;;;;;;;;;;;29.48;33.66;100626.88;4979147;28;967;-41
2022/08/12 06:59:52;;;;;;;;;;;;;;;29.03;35.00;100624.59;4978720;28;1078;-42
2022/08/12 07:02:21;;;;;;;;;;;;;;;29.21;35.41;100624.06;4978164;28;1032;-40
2022/08/12 07:04:49;;;;;;;;;;;;;;;29.59;34.96;100625.50;4977419;28;1181;-43
2022/08/12 07:07:14;;;;;;;;;;;;;;;29.36;35.43;100632.06;4977380;28;1225;-42
2022/08/12 07:09:41;;;;;;;;;;;;;;;29.64;34.84;100619.47;4978349;28;1294;-40
2022/08/12 07:12:11;;;;;;;;;;;;;;;29.42;35.07;100628.53;4977911;28;1969;-41
2022/08/12 07:14:37;;;;;;;;;;;;;;;29.35;34.76;100627.66;4978372;28;1071;-43
2022/08/12 07:17:02;;;;;;;;;;;;;;;29.50;34.77;100624.81;4977044;28;1034;-43
2022/08/12 07:19:28;;;;;;;;;;;;;;;29.52;35.15;100627.31;4977883;28;1827;-43
2022/08/12 07:21:53;;;;;;;;;;;;;;;29.53;35.04;100626.28;4978092;28;1023;-43
2022/08/12 07:24:18;;;;;;;;;;;;;;;29.48;35.06;100620.66;4977970;28;1065;-43
2022/08/12 07:26:44;;;;;;;;;;;;;;;29.48;35.18;100624.16;4978048;28;1075;-43
2022/08/12 07:29:09;;;;;;;;;;;;;;;29.45;35.24;100627.28;4978050;28;972;-43
2022/08/12 07:31:35;;;;;;;;;;;;;;;29.50;35.20;100627.50;4977533;28;1894;-43
2022/08/12 07:34:00;;;;;;;;;;;;;;;29.48;35.11;100628.78;4977911;28;948;-43
2022/08/12 07:36:26;;;;;;;;;;;;;;;29.48;35.75;100626.06;4975265;28;1223;-43
2022/08/12 07:38:51;;;;;;;;;;;;;;;29.42;35.32;100628.53;4976431;28;1134;-43
2022/08/12 07:41:16;;;;;;;;;;;;;;;29.42;34.83;100623.13;4976669;28;967;-43
2022/08/12 07:44:01;;;;;;;;;;;;;;;29.46;35.35;100628.97;4976453;28;1028;-43
2022/08/12 07:46:29;;;;;;;;;;;;;;;29.41;35.24;100621.44;4976172;28;1106;-43
2022/08/12 07:48:56;;;;;;;;;;;;;;;29.45;35.34;100617.28;4972253;28;1978;-43
2022/08/12 07:51:21;;;;;;;;;;;;;;;29.15;33.53;100612.16;4975385;28;1890;-42
2022/08/12 07:53:47;;;;;;;;;;;;;;;29.48;33.50;100621.47;4975561;28;1149;-42
2022/08/12 07:56:13;;;;;;;;;;;;;;;29.78;34.35;100614.94;4975140;28;1212;-41
2022/08/12 07:58:39;;;;;;;;;;;;;;;29.70;34.24;100614.06;4976831;28;999;-43
2022/08/12 08:01:05;;;;;;;;;;;;;;;29.41;33.44;100616.00;4976925;28;960;-43
2022/08/12 08:03:30;;;;;;;;;;;;;;;29.70;33.64;100616.78;4972886;28;1106;-43
2022/08/12 08:05:57;;;;;;;;;;;;;;;29.83;33.90;100615.13;4975202;28;1260;-41
2022/08/12 08:08:23;;;;;;;;;;;;;;;29.77;33.85;100621.38;4975610;28;1162;-43
2022/08/12 08:10:48;;;;;;;;;;;;;;;30.00;33.96;100623.72;4975693;28;1360;-43
2022/08/12 08:13:14;;;;;;;;;;;;;;;29.84;34.41;100626.81;4976302;28;1914;-43
2022/08/12 08:15:39;;;;;;;;;;;;;;;29.42;35.18;100625.81;4975597;28;1109;-42
2022/08/12 08:18:06;;;;;;;;;;;;;;;29.41;32.71;100623.31;4975230;28;1170;-43
2022/08/12 08:20:32;;;;;;;;;;;;;;;29.63;33.45;100618.63;4975915;28;1744;-43
2022/08/12 08:22:58;;;;;;;;;;;;;;;29.76;33.63;100617.81;4976211;28;1468;-42
2022/08/12 08:25:30;;;;;;;;;;;;;;;29.82;33.65;100614.31;4975906;28;952;-43
2022/08/12 08:27:56;;;;;;;;;;;;;;;29.53;34.28;100618.97;4975907;28;1075;-43
2022/08/12 08:30:22;;;;;;;;;;;;;;;29.82;34.54;100614.31;4976318;28;916;-43
2022/08/12 08:32:48;;;;;;;;;;;;;;;29.80;33.83;100610.13;4976332;28;1973;-42
2022/08/12 08:35:13;;;;;;;;;;;;;;;29.70;34.88;100607.81;4976439;28;999;-43
2022/08/12 08:37:38;;;;;;;;;;;;;;;29.96;34.03;100606.22;4975950;28;998;-43
2022/08/12 08:42:35;;;;;;;;;;;;;;;29.90;34.28;100604.31;4975366;28;1014;-43
2022/08/12 08:42:50;;;;;;;;;;;;;;;29.47;35.11;100598.13;4974871;28;991;-44
2022/08/12 08:45:15;;;;;;;;;;;;;;;29.39;36.08;100609.97;4975888;28;885;-44
2022/08/12 08:47:44;;;;;;;;;;;;;;;29.33;36.00;100599.94;4976043;28;908;-44
2022/08/12 08:50:09;;;;;;;;;;;;;;;29.30;35.93;100605.75;4976350;28;1935;-43
2022/08/12 08:52:36;;;;;;;;;;;;;;;29.30;35.82;100611.16;4980252;28;1894;-42
2022/08/12 08:55:01;;;;;;;;;;;;;;;29.23;35.98;100607.63;4975218;28;971;-42
2022/08/12 08:57:26;;;;;;;;;;;;;;;29.36;36.69;100599.56;4972047;28;960;-42
2022/08/12 08:59:52;;;;;;;;;;;;;;;29.40;36.54;100618.91;4976628;28;1146;-43
2022/08/12 09:02:17;;;;;;;;;;;;;;;29.52;36.51;100597.50;4976020;28;971;-41
2022/08/12 09:04:44;;;;;;;;;;;;;;;29.52;36.54;100592.09;4976438;28;945;-41
2022/08/12 09:07:11;;;;;;;;;;;;;;;29.49;36.63;100595.19;4979223;28;1000;-42
2022/08/12 09:09:37;;;;;;;;;;;;;;;29.61;36.41;100598.19;4980278;28;1241;-42
2022/08/12 09:14:47;;;;;;;;;;;;;;;29.82;35.62;100587.19;4979144;28;999;-42
2022/08/12 09:17:13;;;;;;;;;;;;;;;29.64;35.97;100581.53;4978989;28;1288;-44
2022/08/12 09:19:38;;;;;;;;;;;;;;;29.69;35.97;100592.59;4978595;28;2149;-43
2022/08/12 09:22:06;;;;;;;;;;;;;;;29.73;35.79;100587.59;4979276;28;1173;-42
2022/08/12 09:24:31;;;;;;;;;;;;;;;29.78;35.77;100577.78;4978755;28;1237;-42
2022/08/12 09:26:57;;;;;;;;;;;;;;;29.91;35.49;100581.59;4978813;28;1031;-43
2022/08/12 09:29:22;;;;;;;;;;;;;;;29.81;34.87;100568.44;4979111;28;1004;-43
2022/08/12 09:31:50;;;;;;;;;;;;;;;29.84;34.06;100576.16;4979093;28;1960;-43
2022/08/12 09:34:17;;;;;;;;;;;;;;;24.91;45.13;100562.59;4979630;28;995;-39
2022/08/12 09:36:42;;;;;;;;;;;;;;;22.53;48.88;100562.47;4979683;28;1154;-41
2022/08/12 09:39:08;;;;;;;;;;;;;;;21.81;51.31;100552.63;4979815;28;881;-42
2022/08/12 09:41:37;;;;;;;;;;;;;;;21.90;52.59;100554.44;4979538;28;1018;-38
2022/08/12 09:46:46;;;;;;;;;;;;;;;21.69;53.22;100542.13;4977736;28;983;-42
2022/08/12 09:49:11;;;;;;;;;;;;;;;21.51;53.67;100534.06;4979043;28;1835;-46
2022/08/12 09:51:37;;;;;;;;;;;;;;;21.45;53.60;100540.88;4979299;28;1910;-43
2022/08/12 09:54:03;;;;;;;;;;;;;;;21.28;53.55;100542.50;4978487;28;1347;-43
2022/08/12 09:56:31;;;;;;;;;;;;;;;21.25;53.77;100535.59;4978236;28;1567;-43
2022/08/12 09:58:57;;;;;;;;;;;;;;;21.29;53.38;100523.63;4977752;28;1295;-43
2022/08/12 10:01:23;;;;;;;;;;;;;;;21.09;53.76;100522.03;4975622;28;1186;-43
2022/08/12 10:03:48;;;;;;;;;;;;;;;21.01;53.91;100528.97;4978392;28;1405;-43
2022/08/12 10:06:13;;;;;;;;;;;;;;;21.00;53.61;100524.59;4979111;28;1294;-43
2022/08/12 10:08:39;;;;;;;;;;;;;;;20.98;53.72;100521.25;4978922;28;1070;-43
2022/08/12 10:13:51;;;;;;;;;;;;;;;20.96;54.48;100517.03;4979297;28;1221;-43
2022/08/12 10:16:20;;;;;;;;;;;;;;;20.95;54.50;100515.34;4978916;28;948;-41
2022/08/12 10:18:46;;;;;;;;;;;;;;;20.89;55.03;100514.91;4978296;28;956;-42
2022/08/12 10:21:15;;;;;;;;;;;;;;;20.88;55.27;100510.56;4972211;28;2165;-42
2022/08/12 10:23:41;;;;;;;;;;;;;;;20.94;55.17;100511.00;4979198;28;1035;-42
2022/08/12 10:31:35;;;;;;;;;;;;;;;21.00;55.36;100505.88;4976327;28;1973;-43
2022/08/12 10:34:00;;;;;;;;;;;;;;;20.92;55.10;100500.41;4978364;28;1210;-44
2022/08/12 10:36:25;;;;;;;;;;;;;;;20.95;55.14;100508.19;4960972;28;1214;-43
2022/08/12 10:38:51;;;;;;;;;;;;;;;20.91;55.29;100507.59;4977677;28;1206;-42
2022/08/12 10:44:03;;;;;;;;;;;;;;;24.95;47.29;100503.91;4977848;28;1058;-43
2022/08/12 10:46:29;;;;;;;;;;;;;;;22.04;53.67;100512.84;4978332;28;1118;-42
2022/08/12 10:48:54;;;;;;;;;;;;;;;21.51;54.91;100505.47;4972101;28;1814;-43
2022/08/12 10:51:19;;;;;;;;;;;;;;;21.41;55.37;100502.03;4978398;28;1915;-44
2022/08/12 10:53:45;;;;;;;;;;;;;;;21.39;55.85;100495.97;4978632;28;1023;-43
2022/08/12 10:56:10;;;;;;;;;;;;;;;22.24;60.10;100508.16;4978304;28;960;-43
2022/08/12 10:58:39;;;;;;;;;;;;;;;25.24;47.24;100494.31;4976844;28;1064;-43
2022/08/12 11:01:09;;;;;;;;;;;;;;;26.89;43.96;100497.69;4977026;28;1327;-43
2022/08/12 11:03:37;;;;;;;;;;;;;;;27.66;43.73;100504.63;4973014;28;1241;-43
2022/08/12 11:06:03;;;;;;;;;;;;;;;27.92;39.57;100498.66;4976889;28;1293;-44
2022/08/12 11:08:29;;;;;;;;;;;;;;;28.15;42.37;100494.88;4977360;28;1066;-42
2022/08/12 11:10:54;;;;;;;;;;;;;;;28.30;38.34;100491.22;4977338;28;1265;-42
2022/08/12 11:13:19;;;;;;;;;;;;;;;28.47;38.73;100492.63;4977170;28;1898;-43
2022/08/12 11:15:45;;;;;;;;;;;;;;;28.85;39.86;100487.81;4976598;28;1109;-43
2022/08/12 11:18:10;;;;;;;;;;;;;;;28.78;37.65;100486.97;4976873;28;1069;-43
2022/08/12 11:20:36;;;;;;;;;;;;;;;28.57;39.57;100478.75;4977340;28;2033;-43
2022/08/12 11:23:01;;;;;;;;;;;;;;;28.83;37.35;100479.91;4977329;28;1141;-43
2022/08/12 11:25:26;;;;;;;;;;;;;;;28.93;37.54;100468.69;4977195;28;960;-43
2022/08/12 11:27:52;;;;;;;;;;;;;;;28.85;39.77;100472.44;4977259;28;1178;-42
2022/08/12 11:30:17;;;;;;;;;;;;;;;29.11;36.56;100471.94;4976020;28;1252;-43
2022/08/12 11:32:42;;;;;;;;;;;;;;;29.08;37.67;100476.69;4976391;28;1989;-43
2022/08/12 11:35:08;;;;;;;;;;;;;;;29.39;35.72;100479.06;4978232;28;1264;-44
2022/08/12 11:37:36;;;;;;;;;;;;;;;29.06;36.28;100477.97;4976824;28;1052;-44
2022/08/12 11:40:01;;;;;;;;;;;;;;;28.92;39.09;100464.34;4977089;28;943;-45
2022/08/12 11:42:27;;;;;;;;;;;;;;;29.25;35.62;100467.34;4976797;28;1062;-45
2022/08/12 11:44:52;;;;;;;;;;;;;;;29.12;36.06;100476.28;4977105;28;963;-45
2022/08/12 11:47:17;;;;;;;;;;;;;;;29.43;37.17;100474.91;4976445;28;1004;-45
2022/08/12 11:49:43;;;;;;;;;;;;;;;29.40;35.04;100478.03;4977181;28;1122;-45
2022/08/12 11:52:08;;;;;;;;;;;;;;;29.41;37.42;100479.72;4976594;28;1902;-45
2022/08/12 11:54:34;;;;;;;;;;;;;;;24.56;45.11;100481.28;4976468;28;992;-44
2022/08/12 11:56:59;;;;;;;;;;;;;;;22.68;50.10;100476.13;4975611;28;1236;-46
2022/08/12 11:59:24;;;;;;;;;;;;;;;22.34;52.06;100475.06;4975734;28;851;-44
2022/08/12 12:01:50;;;;;;;;;;;;;;;22.17;52.91;100468.75;4976099;28;1035;-43
2022/08/12 12:04:15;;;;;;;;;;;;;;;21.82;53.76;100466.81;4976749;28;990;-43
2022/08/12 12:06:40;;;;;;;;;;;;;;;21.76;54.15;100478.97;4977481;28;1098;-43
2022/08/12 12:09:06;;;;;;;;;;;;;;;22.11;58.55;100480.94;4976571;28;1174;-42
2022/08/12 12:11:31;;;;;;;;;;;;;;;25.36;46.38;100478.63;4977271;28;1969;-43
2022/08/12 12:13:56;;;;;;;;;;;;;;;26.88;46.61;100488.75;4977169;28;1083;-43
2022/08/12 12:16:21;;;;;;;;;;;;;;;28.00;39.57;100476.03;4977596;28;1035;-43
2022/08/12 12:18:47;;;;;;;;;;;;;;;28.20;39.29;100481.59;4977303;28;967;-43
2022/08/12 12:21:12;;;;;;;;;;;;;;;27.74;42.31;100475.59;4975536;28;2595;-43
2022/08/12 12:23:37;;;;;;;;;;;;;;;27.91;35.06;100472.63;4971039;28;2837;-43
2022/08/12 12:26:03;;;;;;;;;;;;;;;28.05;36.44;100470.03;4971073;28;2568;-43
2022/08/12 12:28:28;;;;;;;;;;;;;;;28.00;33.63;100470.63;4973904;28;1286;-42
2022/08/12 12:30:53;;;;;;;;;;;;;;;28.41;34.96;100476.38;4976757;28;1094;-43
2022/08/12 12:33:22;;;;;;;;;;;;;;;28.42;36.12;100469.91;4976599;28;1967;-43
2022/08/12 12:35:47;;;;;;;;;;;;;;;28.99;34.50;100486.06;4976833;28;972;-42
2022/08/12 12:38:12;;;;;;;;;;;;;;;29.02;35.93;100476.66;4976558;28;956;-42
2022/08/12 12:40:39;;;;;;;;;;;;;;;29.13;35.13;100484.22;4978534;28;1241;-43
2022/08/12 12:43:04;;;;;;;;;;;;;;;29.21;35.47;100485.91;4983420;28;1075;-43
2022/08/12 12:45:31;;;;;;;;;;;;;;;29.32;37.37;100481.78;4982531;28;1043;-43
2022/08/12 12:48:03;;;;;;;;;;;;;;;29.26;36.41;100486.13;4983395;28;1039;-43
2022/08/12 12:50:29;;;;;;;;;;;;;;;28.57;41.54;100484.16;4981539;28;1926;-44
2022/08/12 12:52:55;;;;;;;;;;;;;;;24.85;50.16;100474.47;4983165;28;1966;-44
2022/08/12 12:55:20;;;;;;;;;;;;;;;23.71;52.17;100484.19;4983161;28;1046;-45
2022/08/12 12:57:45;;;;;;;;;;;;;;;23.58;52.42;100484.69;4983145;28;987;-43
2022/08/12 13:00:14;;;;;;;;;;;;;;;23.36;53.96;100471.69;4982579;28;1458;-45
2022/08/12 13:02:52;;;;;;;;;;;;;;;23.27;54.84;100463.78;4982886;28;1070;-44
2022/08/12 13:05:37;;;;;;;;;;;;;;;23.31;54.34;100473.19;4982064;28;1186;-44
2022/08/12 13:08:17;;;;;;;;;;;;;;;25.18;52.95;100479.75;4981997;28;1240;-44
2022/08/12 13:10:42;;;;;;;;;;;;;;;25.84;49.40;100484.91;4982113;28;994;-44
2022/08/12 13:13:08;;;;;;;;;;;;;;;23.42;54.19;100472.06;4981449;28;1914;-43
2022/08/12 13:15:33;;;;;;;;;;;;;;;23.14;55.88;100480.34;4981924;28;1142;-43
2022/08/12 13:18:02;;;;;;;;;;;;;;;23.02;55.71;100472.59;4982564;28;948;-43
2022/08/12 13:20:30;;;;;;;;;;;;;;;23.06;56.29;100482.00;4978206;28;2006;-43
2022/08/12 13:22:55;;;;;;;;;;;;;;;23.15;56.00;100480.19;4982581;28;883;-43
2022/08/12 13:25:23;;;;;;;;;;;;;;;23.38;56.66;100487.63;4982506;28;1161;-43
2022/08/12 13:27:48;;;;;;;;;;;;;;;25.47;55.23;100481.94;4982748;28;1196;-43
2022/08/12 13:30:14;;;;;;;;;;;;;;;27.14;49.68;100482.03;4982997;28;1027;-42
2022/08/12 13:32:40;;;;;;;;;;;;;;;24.03;54.71;100477.16;4982407;28;1959;-42
2022/08/12 13:35:05;;;;;;;;;;;;;;;23.63;56.47;100474.28;4982259;28;1181;-43
2022/08/12 13:37:31;;;;;;;;;;;;;;;23.58;56.27;100479.31;4980712;28;1058;-43
2022/08/12 13:39:56;;;;;;;;;;;;;;;23.42;56.68;100480.13;4981613;28;952;-42
2022/08/12 13:42:21;;;;;;;;;;;;;;;23.19;57.30;100480.72;4982209;28;1149;-43
2022/08/12 13:44:48;;;;;;;;;;;;;;;23.48;56.52;100477.63;4981835;28;1114;-42
2022/08/12 13:47:13;;;;;;;;;;;;;;;25.42;53.69;100474.38;4981793;28;819;-43
2022/08/12 13:49:38;;;;;;;;;;;;;;;27.35;48.73;100487.66;4982086;28;2010;-41
2022/08/12 13:52:04;;;;;;;;;;;;;;;24.47;53.28;100477.78;4980032;28;1918;-42
2022/08/12 13:54:29;;;;;;;;;;;;;;;23.38;55.79;100481.41;4977278;28;1228;-42
2022/08/12 13:56:55;;;;;;;;;;;;;;;23.02;56.10;100479.81;4977565;28;1011;-41
2022/08/12 13:59:21;;;;;;;;;;;;;;;23.16;55.28;100472.97;4978366;28;1012;-43
2022/08/12 14:01:48;;;;;;;;;;;;;;;22.19;56.96;100475.63;4977695;28;1237;-41
2022/08/12 14:04:14;;;;;;;;;;;;;;;21.96;56.66;100469.94;4978610;28;1015;-41
2022/08/12 14:06:39;;;;;;;;;;;;;;;23.16;58.69;100467.59;4977817;28;1059;-43
2022/08/12 14:09:05;;;;;;;;;;;;;;;26.25;46.81;100472.91;4978997;28;1004;-42
2022/08/12 14:11:30;;;;;;;;;;;;;;;27.71;42.59;100469.78;4978044;28;1971;-41
2022/08/12 14:13:58;;;;;;;;;;;;;;;28.27;45.23;100478.94;4978096;28;1007;-42
2022/08/12 14:16:23;;;;;;;;;;;;;;;28.48;40.16;100479.91;4978057;28;1141;-42
2022/08/12 14:18:49;;;;;;;;;;;;;;;28.87;39.50;100476.78;4978853;28;973;-43
2022/08/12 14:21:15;;;;;;;;;;;;;;;29.01;39.39;100480.44;4974256;28;2190;-43